Thursday, April 24, 2014, 12:08 PM EDT

KFYJ, West Point, Middle Peninsula Regional Airport

Location: Shacklefords, VA, United States Lat: 37.521
Local Time: 12:08 PM EDT (16:08 GMT) Lon: -76.764
Time Zone: US/Eastern Elev: 22 ft

Show me the last for .
Show Decoded

2014-04-24 11:55 METAR KFYJ 241555Z AUTO RMK AO2 PNO =
2014-04-24 11:35 METAR KFYJ 241535Z AUTO RMK AO2 PNO =
2014-04-24 11:15 METAR KFYJ 241515Z AUTO RMK AO2 PNO =
2014-04-24 10:55 METAR KFYJ 241455Z AUTO RMK AO2 6//// PNO =
2014-04-24 10:35 METAR KFYJ 241435Z AUTO RMK AO2 PNO =
2014-04-24 10:15 METAR KFYJ 241415Z AUTO RMK AO2 PNO =
2014-04-24 09:55 METAR KFYJ 241355Z AUTO RMK AO2 PNO =
2014-04-24 09:35 METAR KFYJ 241335Z AUTO RMK AO2 PNO =
2014-04-24 09:15 METAR KFYJ 241315Z AUTO RMK AO2 PNO =
2014-04-24 08:55 METAR KFYJ 241255Z AUTO RMK AO2 PNO =
2014-04-24 08:35 METAR KFYJ 241235Z AUTO RMK AO2 PNO =
2014-04-24 08:15 METAR KFYJ 241215Z AUTO 10SM CLR RMK AO2 PNO =
2014-04-24 07:55 METAR KFYJ 241155Z AUTO 32005KT 10SM CLR 09/M01 A3013 RMK AO2 7//// T00921007
                 10110 20026 =
2014-04-24 07:35 METAR KFYJ 241135Z AUTO 33005KT 10SM CLR 09/00 A3013 RMK AO2 T00851002 =
2014-04-24 07:15 METAR KFYJ 241115Z AUTO 00000KT 10SM CLR 08/00 A3012 RMK AO2 T00751001 =
2014-04-24 06:55 METAR KFYJ 241055Z AUTO 00000KT 10SM CLR 06/00 A3011 RMK AO2 T00571004 =
2014-04-24 06:35 METAR KFYJ 241035Z AUTO 29005KT 10SM CLR 04/00 A3010 RMK AO2 T00420001 =
2014-04-24 06:15 METAR KFYJ 241015Z AUTO 00000KT 10SM CLR 05/00 A3009 RMK AO2 T00471005 =
2014-04-24 05:55 METAR KFYJ 240955Z AUTO 00000KT 10SM CLR 05/00 A3008 RMK AO2 T00521001 =
2014-04-24 05:35 METAR KFYJ 240935Z AUTO 00000KT 10SM CLR 07/M01 A3008 RMK AO2 T00671009 =
2014-04-24 05:15 METAR KFYJ 240915Z AUTO 00000KT 10SM CLR 08/M01 A3007 RMK AO2 T00801012 =
2014-04-24 04:55 METAR KFYJ 240855Z AUTO 00000KT 10SM CLR 08/M01 A3007 RMK AO2 T00821015 =
2014-04-24 04:35 METAR KFYJ 240835Z AUTO 00000KT 10SM CLR 09/M02 A3006 RMK AO2 T00851020 =
2014-04-24 04:15 METAR KFYJ 240815Z AUTO 00000KT 10SM CLR 08/M02 A3006 RMK AO2 T00811018 =
2014-04-24 03:55 METAR KFYJ 240755Z AUTO 00000KT 10SM CLR 09/M01 A3005 RMK AO2 T00891012 =
2014-04-24 03:35 METAR KFYJ 240735Z AUTO 34003KT 10SM CLR 09/M01 A3005 RMK AO2 T00931013 =
2014-04-24 03:15 METAR KFYJ 240715Z AUTO 31003KT 10SM CLR 10/M01 A3005 RMK AO2 T00961015 =
2014-04-24 02:55 METAR KFYJ 240655Z AUTO 32004KT 10SM CLR 10/M01 A3004 RMK AO2 T01001015 =
2014-04-24 02:35 METAR KFYJ 240635Z AUTO 33005KT 10SM CLR 11/M02 A3004 RMK AO2 T01051019 =
2014-04-24 02:15 METAR KFYJ 240615Z AUTO 32005KT 10SM CLR 11/M02 A3004 RMK AO2 T01081018 =
2014-04-24 01:55 METAR KFYJ 240555Z AUTO 33005KT 10SM CLR 11/M01 A3003 RMK AO2 T01101010 10159
                 20110 =
2014-04-24 01:35 METAR KFYJ 240535Z AUTO 32004KT 10SM CLR 11/M01 A3003 RMK AO2 T01121010 =
2014-04-24 01:15 METAR KFYJ 240515Z AUTO 34005KT 10SM CLR 12/M01 A3002 RMK AO2 T01151007 =
2014-04-24 00:55 METAR KFYJ 240455Z AUTO 35005KT 10SM CLR 12/M01 A3002 RMK AO2 T01191011 =
2014-04-24 00:35 METAR KFYJ 240435Z AUTO 35003KT 10SM CLR 12/00 A3002 RMK AO2 T01181004 =
2014-04-24 00:15 METAR KFYJ 240415Z AUTO 31003KT 10SM CLR 12/M01 A3001 RMK AO2 T01201006 =
2014-04-23 23:55 METAR KFYJ 240355Z AUTO 32007KT 10SM CLR 12/00 A2999 RMK AO2 T01231005 =
2014-04-23 23:35 METAR KFYJ 240335Z AUTO 32007KT 290V350 10SM CLR 13/00 A2999 RMK AO2 T01261005 =
2014-04-23 23:15 METAR KFYJ 240315Z AUTO 32006KT 10SM CLR 13/00 A2998 RMK AO2 T01281001 =
2014-04-23 22:55 METAR KFYJ 240255Z AUTO 35005KT 10SM CLR 13/00 A2998 RMK AO2 T01300000 =
2014-04-23 22:35 METAR KFYJ 240235Z AUTO 31007KT 10SM CLR 13/00 A2997 RMK AO2 T01300001 =
2014-04-23 22:15 METAR KFYJ 240215Z AUTO 00000KT 10SM CLR 13/00 A2996 RMK AO2 T01340002 =
2014-04-23 21:55 METAR KFYJ 240155Z AUTO 32004KT 10SM CLR 14/00 A2996 RMK AO2 T01360000 =
2014-04-23 21:35 METAR KFYJ 240135Z AUTO 34004KT 10SM CLR 14/M01 A2995 RMK AO2 T01421009 =
2014-04-23 21:15 METAR KFYJ 240115Z AUTO 33005KT 10SM CLR 15/M01 A2994 RMK AO2 T01461010 =
2014-04-23 20:55 METAR KFYJ 240055Z AUTO 33005KT 10SM CLR 15/M01 A2993 RMK AO2 T01511015 =
2014-04-23 20:35 METAR KFYJ 240035Z AUTO 35006KT 10SM CLR 16/M02 A2991 RMK AO2 T01561018 =
2014-04-23 20:15 METAR KFYJ 240015Z AUTO 34005KT 10SM CLR 16/00 A2990 RMK AO2 T01581001 =
2014-04-23 19:55 METAR KFYJ 232355Z AUTO 32004KT 10SM CLR 16/00 A2988 RMK AO2 6//// T01601003 =
2014-04-23 19:35 METAR KFYJ 232335Z AUTO 34004KT 10SM CLR 17/M02 A2987 RMK AO2 T01701016 =
2014-04-23 19:15 METAR KFYJ 232315Z AUTO 34006G14KT 10SM CLR 18/M02 A2986 RMK AO2 T01771024 =
2014-04-23 18:55 METAR KFYJ 232255Z AUTO 32004KT 10SM CLR 18/M02 A2986 RMK AO2 T01821019 =
2014-04-23 18:35 METAR KFYJ 232235Z AUTO 33007KT 10SM CLR 19/M02 A2986 RMK AO2 T01851024 =
2014-04-23 18:15 METAR KFYJ 232215Z AUTO 33008G14KT 10SM SCT075 19/M03 A2985 RMK AO2 T01891031 =
2014-04-23 17:55 METAR KFYJ 232155Z AUTO 32011G17KT 290V360 10SM CLR 19/M03 A2984 RMK AO2
                 T01901030 =
2014-04-23 17:35 METAR KFYJ 232135Z AUTO 32007G15KT 290V360 10SM 19/M03 A2983 RMK AO2 T01921030 =
2014-04-23 17:15 METAR KFYJ 232115Z AUTO RMK AO2 PNO =
2014-04-23 16:55 METAR KFYJ 232055Z AUTO RMK AO2 6//// PNO =
2014-04-23 16:35 METAR KFYJ 232035Z AUTO RMK AO2 PNO =
2014-04-23 16:15 METAR KFYJ 232015Z AUTO RMK AO2 PNO =
2014-04-23 15:55 METAR KFYJ 231955Z AUTO RMK AO2 PNO =
2014-04-23 15:35 METAR KFYJ 231935Z AUTO RMK AO2 PNO =
2014-04-23 15:15 METAR KFYJ 231915Z AUTO RMK AO2 PNO =
2014-04-23 14:35 METAR KFYJ 231835Z AUTO RMK AO2 PNO =
2014-04-23 14:15 METAR KFYJ 231815Z AUTO RMK AO2 PNO =
2014-04-23 13:55 METAR KFYJ 231755Z AUTO RMK AO2 6//// PNO =
2014-04-23 13:35 METAR KFYJ 231735Z AUTO RMK AO2 PNO =
2014-04-23 13:15 METAR KFYJ 231715Z AUTO RMK AO2 PNO =
2014-04-23 12:55 METAR KFYJ 231655Z AUTO RMK AO2 PNO =
2014-04-23 12:35 METAR KFYJ 231635Z AUTO RMK AO2 PNO =
2014-04-23 12:15 METAR KFYJ 231615Z AUTO RMK AO2 PNO =

Support USWX by starting your Amazon purchase here.